KBCB/BCB METAR and TAF weather

Enter ICAO airport designator
Station Type Date Time Source
KBCB METAR 2021/03/05 00:35 UTC NOAA

KBCB 050035Z AUTO 30008G25KT 10SM CLR 08/M06 A2999 RMK AO2 T00771058


Station Type Date Time Source
KBCB Decoded METAR 2021/03/05 00:35 UTC NOAA

Virginia Tech Airport, VA, United States (KBCB) 37-13N 080-25W
Mar 04, 2021 - 07:35 PM EST / 2021.03.05 0035 UTC
Wind: from the WNW (300 degrees) at 9 MPH (8 KT) gusting to 29 MPH (25 KT):0
Visibility: 10 mile(s):0
Sky conditions: clear
Temperature: 45.9 F (7.7 C)
Dew Point: 21.6 F (-5.8 C)
Relative Humidity: 37%
Pressure (altimeter): 29.99 in. Hg (1015 hPa)
ob: KBCB 050035Z AUTO 30008G25KT 10SM CLR 08/M06 A2999 RMK AO2 T00771058
cycle: 0

Station Type Date Time Source
KBCB TAF 2021/03/04 18:54 UTC NOAA

TAF KBCB 041738Z 0418/0518 30014G24KT P6SM SKC
FM050000 31009KT P6SM SKC
FM051500 30012G20KT P6SM SKC

Example: see airport list